createdAt,value
2019-05-29T00:01:17.751Z,22.78
2019-05-29T00:03:37.964Z,22.77
2019-05-29T00:06:03.976Z,22.78
2019-05-29T00:08:29.990Z,22.77
2019-05-29T00:10:55.996Z,22.77
2019-05-29T00:13:22.004Z,22.77
2019-05-29T00:15:48.007Z,22.77
2019-05-29T00:18:14.603Z,22.77
2019-05-29T00:20:40.026Z,22.76
2019-05-29T00:23:06.423Z,22.77
2019-05-29T00:25:32.041Z,22.76
2019-05-29T00:27:58.055Z,22.76
2019-05-29T00:30:24.052Z,22.76
2019-05-29T00:32:50.065Z,22.76
2019-05-29T00:35:16.358Z,22.76
2019-05-29T00:37:42.082Z,22.76
2019-05-29T00:40:08.898Z,22.76
2019-05-29T00:42:34.092Z,22.76
2019-05-29T00:45:00.086Z,22.76
2019-05-29T00:47:26.084Z,22.76
2019-05-29T00:49:52.108Z,22.76
2019-05-29T00:52:18.378Z,22.76
2019-05-29T00:54:44.123Z,22.76
2019-05-29T00:57:10.877Z,22.76
2019-05-29T00:59:36.132Z,22.76
2019-05-29T01:02:02.123Z,22.76
2019-05-29T01:04:28.143Z,22.76
2019-05-29T01:06:54.158Z,22.76
2019-05-29T01:09:20.783Z,22.76
2019-05-29T01:11:46.199Z,22.75
2019-05-29T01:14:13.085Z,22.75
2019-05-29T01:16:38.187Z,22.76
2019-05-29T01:19:04.184Z,22.76
2019-05-29T01:21:30.207Z,22.76
2019-05-29T01:23:56.200Z,22.76
2019-05-29T01:26:22.830Z,22.76
2019-05-29T01:28:48.221Z,22.76
2019-05-29T01:31:15.183Z,22.76
2019-05-29T01:33:40.281Z,22.76
2019-05-29T01:36:06.292Z,22.76
2019-05-29T01:38:32.284Z,22.76
2019-05-29T01:40:58.310Z,22.76
2019-05-29T01:43:24.304Z,22.76
2019-05-29T01:45:50.309Z,22.76
2019-05-29T01:48:17.338Z,22.75
2019-05-29T01:50:42.317Z,22.75
2019-05-29T01:53:08.336Z,22.76
2019-05-29T01:55:34.331Z,22.76
2019-05-29T01:58:00.343Z,22.76
2019-05-29T02:00:26.347Z,22.76
2019-05-29T02:02:52.372Z,22.76
2019-05-29T02:05:18.391Z,22.76
2019-05-29T02:07:44.385Z,22.76
2019-05-29T02:10:10.400Z,22.76
2019-05-29T02:12:36.395Z,22.76
2019-05-29T02:15:02.502Z,22.75
2019-05-29T02:17:28.502Z,22.76
2019-05-29T02:19:54.528Z,22.76
2019-05-29T02:22:20.937Z,22.76
2019-05-29T02:24:46.523Z,22.76
2019-05-29T02:27:12.538Z,22.75
2019-05-29T02:29:38.575Z,22.75
2019-05-29T02:32:04.676Z,22.76
2019-05-29T02:34:30.696Z,22.76
2019-05-29T02:36:56.693Z,22.76
2019-05-29T02:39:23.461Z,22.75
2019-05-29T02:41:48.885Z,22.75
2019-05-29T02:44:15.012Z,22.75
2019-05-29T02:46:41.008Z,22.75
2019-05-29T02:49:07.029Z,22.76
2019-05-29T02:51:33.033Z,22.75
2019-05-29T02:53:59.039Z,22.75
2019-05-29T02:56:26.890Z,22.76
2019-05-29T02:58:51.054Z,22.76
2019-05-29T03:01:17.089Z,22.75
2019-05-29T03:03:43.202Z,22.76
2019-05-29T03:06:09.202Z,22.76
2019-05-29T03:08:35.225Z,22.76
2019-05-29T03:11:01.226Z,22.75
2019-05-29T03:13:27.762Z,22.76
2019-05-29T03:16:09.527Z,22.75
2019-05-29T03:18:19.267Z,22.76
2019-05-29T03:20:45.257Z,22.76
2019-05-29T03:23:11.262Z,22.76
2019-05-29T03:25:37.274Z,22.76
2019-05-29T03:28:03.279Z,22.75
2019-05-29T03:30:31.680Z,22.75
2019-05-29T03:32:55.329Z,22.75
2019-05-29T03:35:21.312Z,22.75
2019-05-29T03:37:47.335Z,22.76
2019-05-29T03:40:13.327Z,22.76
2019-05-29T03:42:39.429Z,22.76
2019-05-29T03:45:05.346Z,22.76
2019-05-29T03:47:33.039Z,22.76
2019-05-29T03:49:57.359Z,22.76
2019-05-29T03:52:23.363Z,22.76
2019-05-29T03:54:49.394Z,22.77
2019-05-29T03:57:15.407Z,22.78
2019-05-29T03:59:41.429Z,22.78
2019-05-29T04:02:07.454Z,22.79
2019-05-29T04:04:34.104Z,22.80
2019-05-29T04:06:59.494Z,22.81
2019-05-29T04:09:26.954Z,22.81
2019-05-29T04:11:51.492Z,22.81
2019-05-29T04:14:17.501Z,22.82
2019-05-29T04:16:59.314Z,22.82
2019-05-29T04:19:09.521Z,22.82
2019-05-29T04:21:36.366Z,22.82
2019-05-29T04:24:01.543Z,22.82
2019-05-29T04:26:27.942Z,22.83
2019-05-29T04:28:53.556Z,22.83
2019-05-29T04:31:19.572Z,22.83
2019-05-29T04:33:45.567Z,22.84
2019-05-29T04:36:11.693Z,22.84
2019-05-29T04:38:38.509Z,22.86
2019-05-29T04:41:03.724Z,22.85
2019-05-29T04:43:31.087Z,22.86
2019-05-29T04:45:55.741Z,22.87
2019-05-29T04:48:21.867Z,22.86
2019-05-29T04:50:47.871Z,22.87
2019-05-29T04:53:14.175Z,22.87
2019-05-29T04:55:40.185Z,22.88
2019-05-29T04:58:06.273Z,22.87
2019-05-29T05:00:33.088Z,22.88
2019-05-29T05:02:58.275Z,22.88
2019-05-29T05:05:24.296Z,22.88
2019-05-29T05:07:50.353Z,22.89
2019-05-29T05:10:16.382Z,22.90
2019-05-29T05:12:42.507Z,22.90
2019-05-29T05:15:08.540Z,22.90
2019-05-29T05:17:35.912Z,22.90
2019-05-29T05:20:00.545Z,22.90
2019-05-29T05:22:26.601Z,22.90
2019-05-29T05:24:52.601Z,22.89
2019-05-29T05:27:18.620Z,22.90
2019-05-29T05:29:44.650Z,22.89
2019-05-29T05:32:10.651Z,22.90
2019-05-29T05:34:37.119Z,22.90
2019-05-29T05:37:03.197Z,22.90
2019-05-29T05:39:29.205Z,22.90
2019-05-29T05:41:55.350Z,22.90
2019-05-29T05:44:21.361Z,22.89
2019-05-29T05:46:47.391Z,22.90
2019-05-29T05:49:13.416Z,22.90
2019-05-29T05:51:42.776Z,22.90
2019-05-29T05:54:05.481Z,22.89
2019-05-29T05:56:31.510Z,22.89
2019-05-29T05:58:57.558Z,22.93
2019-05-29T06:01:23.558Z,22.91
2019-05-29T06:03:49.613Z,22.91
2019-05-29T06:06:15.587Z,22.90
2019-05-29T06:08:42.466Z,22.91
2019-05-29T06:11:07.617Z,22.92
2019-05-29T06:13:34.149Z,22.90
2019-05-29T06:15:59.806Z,22.91
2019-05-29T06:18:25.809Z,22.91
2019-05-29T06:20:51.821Z,22.90
2019-05-29T06:23:17.845Z,22.89
2019-05-29T06:25:43.991Z,22.89
2019-05-29T06:28:09.870Z,22.89
2019-05-29T06:30:36.634Z,22.89
2019-05-29T06:33:01.898Z,22.88
2019-05-29T06:35:27.929Z,22.88
2019-05-29T06:37:53.938Z,22.87
2019-05-29T06:40:20.005Z,22.88
2019-05-29T06:42:46.025Z,22.88
2019-05-29T06:45:12.053Z,22.87
2019-05-29T06:47:38.608Z,22.87
2019-05-29T06:50:04.110Z,22.87
2019-05-29T06:52:30.105Z,22.87
2019-05-29T06:54:56.133Z,22.88
2019-05-29T06:57:25.752Z,22.89
2019-05-29T06:59:48.922Z,22.95
2019-05-29T07:02:14.176Z,23.00
2019-05-29T07:04:40.458Z,23.01
2019-05-29T07:07:06.278Z,23.01
2019-05-29T07:09:32.333Z,22.99
2019-05-29T07:11:58.355Z,23.04
2019-05-29T07:14:24.368Z,23.01
2019-05-29T07:16:56.029Z,23.03
2019-05-29T07:19:25.673Z,23.01
2019-05-29T07:21:42.786Z,23.01
2019-05-29T07:24:08.440Z,23.00
2019-05-29T07:26:34.429Z,22.99
2019-05-29T07:29:07.969Z,23.00
2019-05-29T07:31:26.448Z,22.99
2019-05-29T07:33:52.468Z,22.99
2019-05-29T07:36:18.489Z,22.98
2019-05-29T07:38:54.895Z,22.98
2019-05-29T07:41:10.553Z,22.98
2019-05-29T07:43:37.566Z,22.98
2019-05-29T07:46:02.576Z,22.97
2019-05-29T07:48:28.585Z,22.96
2019-05-29T07:51:06.678Z,22.96
2019-05-29T07:53:20.584Z,22.95
2019-05-29T07:55:46.790Z,22.96
2019-05-29T07:58:12.607Z,22.95
2019-05-29T08:01:01.066Z,22.95
2019-05-29T08:03:04.636Z,22.95
2019-05-29T08:05:30.653Z,22.95
2019-05-29T08:07:56.652Z,22.95
2019-05-29T08:10:22.688Z,22.95
2019-05-29T08:12:54.395Z,22.95
2019-05-29T08:15:14.695Z,22.95
2019-05-29T08:17:41.913Z,22.95
2019-05-29T08:20:07.896Z,22.95
2019-05-29T08:22:34.595Z,22.95
2019-05-29T08:24:58.754Z,22.95
2019-05-29T08:27:24.776Z,22.95
2019-05-29T08:29:51.183Z,22.95
2019-05-29T08:32:16.806Z,22.95
2019-05-29T08:34:43.034Z,22.95
2019-05-29T08:37:08.829Z,22.95
2019-05-29T08:39:36.835Z,22.95
2019-05-29T08:42:21.249Z,22.95
2019-05-29T08:44:26.887Z,22.95
2019-05-29T08:47:09.240Z,22.96
2019-05-29T08:49:18.986Z,22.95
2019-05-29T08:51:45.965Z,22.95
2019-05-29T08:54:23.428Z,22.95
2019-05-29T08:56:37.137Z,22.95
2019-05-29T08:59:03.172Z,22.96
2019-05-29T09:01:29.233Z,22.96
2019-05-29T09:03:55.211Z,22.96
2019-05-29T09:06:21.437Z,22.96
2019-05-29T09:08:48.506Z,22.96
2019-05-29T09:11:13.286Z,22.96
2019-05-29T09:13:39.284Z,22.96
2019-05-29T09:16:05.324Z,22.95
2019-05-29T09:18:31.320Z,22.96
2019-05-29T09:21:03.195Z,22.97
2019-05-29T09:23:23.421Z,22.96
2019-05-29T09:25:49.369Z,22.96
2019-05-29T09:28:16.594Z,22.96
2019-05-29T09:30:41.398Z,22.96
2019-05-29T09:33:07.406Z,22.97
2019-05-29T09:35:33.418Z,22.97
2019-05-29T09:37:59.433Z,22.97
2019-05-29T09:40:25.450Z,22.97
2019-05-29T09:42:51.452Z,22.98
2019-05-29T09:45:17.945Z,22.98
2019-05-29T09:47:43.478Z,22.98
2019-05-29T09:50:09.495Z,22.98
2019-05-29T09:52:35.634Z,22.98
2019-05-29T09:55:02.579Z,22.99
2019-05-29T09:57:27.560Z,22.99
2019-05-29T09:59:54.446Z,22.99
2019-05-29T10:02:19.579Z,23.00
2019-05-29T10:04:45.584Z,23.00
2019-05-29T10:07:11.615Z,23.01
2019-05-29T10:09:37.609Z,23.00
2019-05-29T10:12:06.711Z,23.00
2019-05-29T10:14:29.636Z,23.00
2019-05-29T10:16:58.229Z,23.01
2019-05-29T10:19:21.735Z,23.00
2019-05-29T10:21:47.740Z,23.01
2019-05-29T10:24:13.750Z,23.00
2019-05-29T10:26:39.744Z,23.01
2019-05-29T10:29:09.073Z,23.01
2019-05-29T10:31:31.850Z,23.01
2019-05-29T10:33:57.874Z,23.01
2019-05-29T10:36:24.128Z,23.01
2019-05-29T10:38:50.696Z,23.01
2019-05-29T10:41:16.147Z,23.01
2019-05-29T10:43:42.947Z,23.01
2019-05-29T10:46:08.158Z,23.01
2019-05-29T10:48:34.270Z,23.01
2019-05-29T10:51:00.239Z,23.02
2019-05-29T10:53:26.237Z,23.02
2019-05-29T10:55:52.680Z,23.01
2019-05-29T10:58:18.285Z,23.03
2019-05-29T11:00:45.353Z,23.04
2019-05-29T11:03:10.332Z,23.04
2019-05-29T11:05:36.346Z,23.03
2019-05-29T11:08:02.355Z,23.04
2019-05-29T11:10:28.353Z,23.04
2019-05-29T11:12:54.725Z,23.03
2019-05-29T11:15:21.921Z,23.04
2019-05-29T11:17:47.175Z,23.03
2019-05-29T11:20:12.639Z,23.04
2019-05-29T11:22:38.675Z,23.03
2019-05-29T11:25:21.406Z,23.03
2019-05-29T11:27:30.764Z,23.03
2019-05-29T11:29:57.163Z,23.03
2019-05-29T11:32:22.739Z,23.03
2019-05-29T11:34:48.965Z,23.03
2019-05-29T11:37:14.794Z,23.03
2019-05-29T11:39:40.820Z,23.04
2019-05-29T11:42:06.815Z,23.04
2019-05-29T11:44:32.880Z,23.04
2019-05-29T11:46:58.869Z,23.05
2019-05-29T11:49:24.871Z,23.05
2019-05-29T11:51:51.574Z,23.05
2019-05-29T11:54:16.887Z,23.05
2019-05-29T11:56:42.909Z,23.06
2019-05-29T11:59:08.920Z,23.07
2019-05-29T12:01:49.735Z,23.07
2019-05-29T12:04:24.095Z,23.07
2019-05-29T12:06:27.101Z,23.07
2019-05-29T12:08:53.650Z,23.07
2019-05-29T12:11:19.113Z,23.07
2019-05-29T12:13:45.214Z,23.08
2019-05-29T12:16:11.317Z,23.09
2019-05-29T12:18:37.328Z,23.08
2019-05-29T12:21:03.341Z,23.08
2019-05-29T12:23:29.351Z,23.09
2019-05-29T12:26:18.849Z,23.10
2019-05-29T12:28:21.492Z,23.10
2019-05-29T12:30:47.480Z,23.10
2019-05-29T12:33:13.494Z,23.10
2019-05-29T12:35:39.516Z,23.10
2019-05-29T12:38:05.539Z,23.11
2019-05-29T12:40:31.545Z,23.11
2019-05-29T12:42:57.608Z,23.12
2019-05-29T12:45:23.566Z,23.12
2019-05-29T12:47:49.569Z,23.12
2019-05-29T12:50:15.640Z,23.12
2019-05-29T12:52:41.630Z,23.12
2019-05-29T12:55:07.659Z,23.12
2019-05-29T12:57:33.673Z,23.11
2019-05-29T13:00:00.309Z,23.11
2019-05-29T13:02:25.789Z,23.12
2019-05-29T13:05:16.271Z,23.12
2019-05-29T13:07:17.939Z,23.11
2019-05-29T13:09:43.939Z,23.12
2019-05-29T13:12:09.966Z,23.11
2019-05-29T13:14:35.959Z,23.11
2019-05-29T13:17:03.033Z,23.11
2019-05-29T13:19:28.025Z,23.11
2019-05-29T13:21:55.049Z,23.10
2019-05-29T13:24:20.054Z,23.11
2019-05-29T13:26:46.111Z,23.10
2019-05-29T13:29:12.113Z,23.10
2019-05-29T13:31:38.408Z,23.10
2019-05-29T13:34:04.447Z,23.09
2019-05-29T13:36:30.151Z,23.10
2019-05-29T13:38:56.144Z,23.09
2019-05-29T13:41:22.175Z,23.09
2019-05-29T13:43:48.192Z,23.09
2019-05-29T13:46:14.200Z,23.08
2019-05-29T13:48:40.217Z,23.08
2019-05-29T13:51:07.402Z,23.09
2019-05-29T13:53:32.301Z,23.08
2019-05-29T13:55:59.705Z,23.08
2019-05-29T13:58:24.326Z,23.08
2019-05-29T14:00:50.360Z,23.07
2019-05-29T14:03:16.347Z,23.07
2019-05-29T14:05:42.363Z,23.07
2019-05-29T14:08:09.203Z,23.07
2019-05-29T14:10:34.375Z,23.07
2019-05-29T14:13:00.933Z,23.07
2019-05-29T14:15:26.403Z,23.07
2019-05-29T14:17:52.426Z,23.07
2019-05-29T14:20:18.441Z,23.07
2019-05-29T14:22:44.454Z,23.07
2019-05-29T14:25:11.673Z,23.06
2019-05-29T14:27:36.475Z,23.06
2019-05-29T14:30:05.741Z,23.06
2019-05-29T14:32:30.857Z,23.06
2019-05-29T14:34:56.876Z,23.05
2019-05-29T14:37:22.891Z,23.05
2019-05-29T14:39:48.903Z,23.06
2019-05-29T14:42:14.933Z,23.06
2019-05-29T14:44:41.076Z,23.05
2019-05-29T14:47:08.011Z,23.06
2019-05-29T14:49:33.083Z,23.05
2019-05-29T14:51:59.110Z,23.06
2019-05-29T14:54:40.690Z,23.05
2019-05-29T14:56:51.407Z,23.05
2019-05-29T14:59:17.503Z,23.06
2019-05-29T15:01:43.443Z,23.06
2019-05-29T15:04:09.644Z,23.05
2019-05-29T15:06:35.555Z,23.05
2019-05-29T15:09:01.596Z,23.06
2019-05-29T15:11:27.625Z,23.07
2019-05-29T15:13:53.631Z,23.06
2019-05-29T15:16:19.761Z,23.09
2019-05-29T15:18:45.795Z,23.10
2019-05-29T15:21:13.110Z,23.10
2019-05-29T15:23:37.865Z,23.10
2019-05-29T15:26:03.863Z,23.12
2019-05-29T15:28:29.939Z,23.13
2019-05-29T15:30:55.941Z,23.13
2019-05-29T15:33:21.958Z,23.13
2019-05-29T15:35:47.972Z,23.14
2019-05-29T15:38:14.886Z,23.14
2019-05-29T15:40:40.031Z,23.15
2019-05-29T15:43:06.631Z,23.15
2019-05-29T15:45:32.077Z,23.15
2019-05-29T15:47:58.082Z,23.15
2019-05-29T15:50:24.103Z,23.15
2019-05-29T15:52:56.710Z,23.16
2019-05-29T15:55:32.078Z,23.18
2019-05-29T15:57:52.039Z,23.18
2019-05-29T16:00:20.960Z,23.19
2019-05-29T16:02:49.716Z,23.20
2019-05-29T16:05:17.214Z,23.20
2019-05-29T16:07:42.482Z,23.18
2019-05-29T16:10:08.595Z,23.18
2019-05-29T16:12:34.922Z,23.18
2019-05-29T16:15:02.932Z,23.18
2019-05-29T16:17:29.271Z,23.18
2019-05-29T16:19:56.388Z,23.17
2019-05-29T16:22:23.634Z,23.17
2019-05-29T16:24:49.919Z,23.17
2019-05-29T16:27:16.143Z,23.19
2019-05-29T16:29:42.141Z,23.18
2019-05-29T16:32:08.180Z,23.19
2019-05-29T16:34:34.325Z,23.20
2019-05-29T16:37:00.542Z,23.20
2019-05-29T16:39:26.741Z,23.20
2019-05-29T16:41:52.749Z,23.20
2019-05-29T16:44:25.001Z,23.20
2019-05-29T16:46:46.454Z,23.20
2019-05-29T16:49:12.588Z,23.20
2019-05-29T16:51:42.116Z,23.20
2019-05-29T16:54:07.096Z,23.19
2019-05-29T16:56:36.506Z,23.20
2019-05-29T16:59:02.525Z,23.20
2019-05-29T17:01:28.876Z,23.19
2019-05-29T17:03:54.877Z,23.19
2019-05-29T17:06:22.434Z,23.19
2019-05-29T17:08:47.289Z,23.20
2019-05-29T17:11:14.601Z,23.20
2019-05-29T17:13:42.761Z,23.20
2019-05-29T17:16:09.520Z,23.20
2019-05-29T17:18:36.088Z,23.19
2019-05-29T17:21:02.393Z,23.19
2019-05-29T17:23:28.967Z,23.19
2019-05-29T17:26:10.319Z,23.19
2019-05-29T17:28:26.272Z,23.19
2019-05-29T17:30:49.497Z,23.19
2019-05-29T17:33:16.886Z,23.19
2019-05-29T17:35:43.647Z,23.18
2019-05-29T17:38:09.753Z,23.18
2019-05-29T17:40:36.179Z,23.18
2019-05-29T17:43:02.866Z,23.19
2019-05-29T17:45:29.803Z,23.19
2019-05-29T17:48:00.581Z,23.19
2019-05-29T17:50:26.857Z,23.19
2019-05-29T17:52:52.875Z,23.20
2019-05-29T17:55:21.686Z,23.19
2019-05-29T17:57:44.897Z,23.19
2019-05-29T18:00:10.915Z,23.20
2019-05-29T18:02:50.909Z,23.19
2019-05-29T18:05:02.968Z,23.20
2019-05-29T18:07:28.981Z,23.19
2019-05-29T18:09:55.039Z,23.20
2019-05-29T18:12:21.045Z,23.20
2019-05-29T18:14:47.156Z,23.20
2019-05-29T18:17:13.176Z,23.20
2019-05-29T18:19:39.216Z,23.20
2019-05-29T18:22:05.250Z,23.20
2019-05-29T18:24:31.249Z,23.21
2019-05-29T18:26:59.228Z,23.21
2019-05-29T18:29:24.434Z,23.22
2019-05-29T18:31:49.418Z,23.24
2019-05-29T18:34:15.454Z,23.25
2019-05-29T18:36:41.491Z,23.26
2019-05-29T18:39:07.594Z,23.25
2019-05-29T18:41:33.620Z,23.26
2019-05-29T18:43:59.673Z,23.27
2019-05-29T18:46:27.131Z,23.27
2019-05-29T18:48:51.782Z,23.27
2019-05-29T18:51:18.002Z,23.27
2019-05-29T18:53:43.995Z,23.27
2019-05-29T18:56:10.164Z,23.27
2019-05-29T18:58:36.234Z,23.28
2019-05-29T19:01:02.252Z,23.27
2019-05-29T19:03:29.524Z,23.29
2019-05-29T19:05:54.282Z,23.29
2019-05-29T19:08:21.536Z,23.29
2019-05-29T19:10:46.313Z,23.29
2019-05-29T19:13:12.326Z,23.30
2019-05-29T19:15:38.491Z,23.30
2019-05-29T19:18:04.505Z,23.30
2019-05-29T19:20:30.601Z,23.30
2019-05-29T19:22:56.737Z,23.29
2019-05-29T19:25:22.786Z,23.30
2019-05-29T19:27:48.753Z,23.30
2019-05-29T19:30:14.755Z,23.30
2019-05-29T19:32:40.788Z,23.29
2019-05-29T19:35:06.785Z,23.30
2019-05-29T19:37:34.039Z,23.30
2019-05-29T19:39:58.877Z,23.30
2019-05-29T19:42:25.902Z,23.30
2019-05-29T19:44:50.892Z,23.31
2019-05-29T19:47:16.890Z,23.31
2019-05-29T19:49:42.895Z,23.31
2019-05-29T19:52:08.928Z,23.30
2019-05-29T19:54:35.717Z,23.30
2019-05-29T19:57:00.928Z,23.30
2019-05-29T19:59:27.959Z,23.30
2019-05-29T20:01:52.957Z,23.29
2019-05-29T20:04:18.995Z,23.29
2019-05-29T20:06:45.000Z,23.29
2019-05-29T20:09:11.026Z,23.29
2019-05-29T20:11:37.868Z,23.29
2019-05-29T20:14:03.150Z,23.28
2019-05-29T20:16:30.096Z,23.28
2019-05-29T20:18:55.187Z,23.28
2019-05-29T20:21:21.246Z,23.27
2019-05-29T20:23:47.256Z,23.27
2019-05-29T20:26:13.268Z,23.26
2019-05-29T20:28:39.274Z,23.26
2019-05-29T20:31:05.321Z,23.26
2019-05-29T20:33:32.390Z,23.26
2019-05-29T20:35:57.322Z,23.25
2019-05-29T20:38:23.387Z,23.25
2019-05-29T20:40:49.342Z,23.25
2019-05-29T20:43:15.363Z,23.25
2019-05-29T20:45:41.703Z,23.24
2019-05-29T20:48:07.464Z,23.23
2019-05-29T20:50:33.427Z,23.24
2019-05-29T20:55:37.725Z,23.22
2019-05-29T20:58:03.241Z,23.22
2019-05-29T21:00:29.307Z,23.22
2019-05-29T21:02:55.462Z,23.22
2019-05-29T21:05:21.464Z,23.22
2019-05-29T21:07:47.491Z,23.21
2019-05-29T21:10:13.496Z,23.22
2019-05-29T21:12:44.351Z,23.21
2019-05-29T21:15:05.555Z,23.21
2019-05-29T21:17:31.544Z,23.21
2019-05-29T21:19:57.571Z,23.19
2019-05-29T21:22:23.571Z,23.20
2019-05-29T21:25:03.297Z,23.20
2019-05-29T21:27:15.769Z,23.20
2019-05-29T21:29:41.796Z,23.20
2019-05-29T21:32:07.790Z,23.20
2019-05-29T21:34:33.819Z,23.19
2019-05-29T21:36:59.838Z,23.19
2019-05-29T21:39:25.835Z,23.18
2019-05-29T21:41:51.864Z,23.18
2019-05-29T21:44:17.862Z,23.19
2019-05-29T21:46:45.050Z,23.18
2019-05-29T21:49:09.979Z,23.18
2019-05-29T21:51:37.285Z,23.18
2019-05-29T21:54:02.039Z,23.18
2019-05-29T21:56:28.061Z,23.18
2019-05-29T21:59:03.375Z,23.18
2019-05-29T22:01:20.049Z,23.18
2019-05-29T22:03:46.530Z,23.17
2019-05-29T22:06:12.093Z,23.17
2019-05-29T22:08:38.742Z,23.17
2019-05-29T22:11:04.091Z,23.17
2019-05-29T22:13:30.078Z,23.17
2019-05-29T22:15:56.869Z,23.17
2019-05-29T22:18:22.159Z,23.17
2019-05-29T22:20:48.182Z,23.17
2019-05-29T22:23:14.194Z,23.16
2019-05-29T22:25:40.201Z,23.16
2019-05-29T22:28:06.218Z,23.16
2019-05-29T22:30:32.222Z,23.16
2019-05-29T22:32:59.472Z,23.15
2019-05-29T22:35:24.249Z,23.15
2019-05-29T22:37:51.433Z,23.16
2019-05-29T22:40:16.276Z,23.15
2019-05-29T22:42:42.294Z,23.15
2019-05-29T22:45:08.351Z,23.16
2019-05-29T22:47:34.342Z,23.15
2019-05-29T22:50:00.376Z,23.16
2019-05-29T22:52:26.391Z,23.15
2019-05-29T22:54:53.658Z,23.15
2019-05-29T22:57:18.406Z,23.15
2019-05-29T22:59:44.412Z,23.15
2019-05-29T23:02:10.419Z,23.15
2019-05-29T23:04:36.430Z,23.15
2019-05-29T23:07:02.620Z,23.15
2019-05-29T23:09:28.483Z,23.14
2019-05-29T23:11:54.483Z,23.14
2019-05-29T23:14:20.502Z,23.14
2019-05-29T23:16:46.501Z,23.14
2019-05-29T23:19:12.517Z,23.14
2019-05-29T23:21:38.532Z,23.14
2019-05-29T23:24:04.546Z,23.14
2019-05-29T23:26:30.544Z,23.14
2019-05-29T23:28:56.863Z,23.15
2019-05-29T23:31:22.737Z,23.14
2019-05-29T23:33:48.735Z,23.14
2019-05-29T23:36:14.752Z,23.13
2019-05-29T23:38:40.747Z,23.14
2019-05-29T23:41:06.815Z,23.14
2019-05-29T23:43:32.843Z,23.14
2019-05-29T23:45:59.476Z,23.13
2019-05-29T23:48:24.855Z,23.14
2019-05-29T23:50:50.931Z,23.14
2019-05-29T23:53:16.942Z,23.13
2019-05-29T23:55:42.957Z,23.13
2019-05-29T23:58:08.939Z,23.13
